Terminal Aerodrome Forecast
Issued by NWS

Home | Current Version | Previous Version | Text Only | Print | Product List | Glossary On
Versions: 1 2 3 4 5 6 7 8 9 10 11 12 13 14
000
FTUS45 KGJT 201739
TAFRIL
TAF
KRIL 201739Z 2018/2118 VRB03KT P6SM FEW023 OVC060
     FM201900 25004KT P6SM SCT140
     FM210400 18005KT P6SM BKN120
     FM210900 23005KT P6SM SCT070
     FM211000 VRB03KT P6SM SCT060=

USA.gov is the U.S. government's official web portal to all federal, state and local government web resources and services.